Time;durP1;ratioP1;P1;durP2;ratioP2;P2;SDS_P1;SDS_P2;PMS_P1;PMS_P2;Temp;Humidity;BMP_temperature;BMP_pressure;BME280_temperature;BME280_humidity;BME280_pressure;Samples;Min_cycle;Max_cycle;Signal;HPM_P1;HPM_P2
2021/03/27 00:01:03;;;;;;;22.23;9.80;;;6.30;88.70;;;;;;5024876;28;20389;-91
2021/03/27 00:03:58;;;;;;;19.67;9.48;;;6.00;90.00;;;;;;5009322;28;20440;-91
2021/03/27 00:07:14;;;;;;;20.42;10.25;;;6.00;90.70;;;;;;5024687;28;20912;-92
2021/03/27 00:10:26;;;;;;;22.02;9.63;;;6.10;90.60;;;;;;5025222;28;20463;-92
2021/03/27 00:13:42;;;;;;;20.25;9.80;;;6.20;91.20;;;;;;5024928;28;20408;-92
2021/03/27 00:16:42;;;;;;;24.23;9.38;;;6.10;91.00;;;;;;5026600;28;20417;-92
2021/03/27 00:19:52;;;;;;;20.27;9.40;;;6.10;91.60;;;;;;5022999;28;20507;-91
2021/03/27 00:23:05;;;;;;;18.55;8.45;;;6.20;90.90;;;;;;4984349;28;20455;-92
2021/03/27 00:26:40;;;;;;;19.25;8.35;;;6.50;90.70;;;;;;4984416;28;20431;-91
2021/03/27 00:29:31;;;;;;;18.35;8.60;;;6.70;90.30;;;;;;4967718;28;20448;-92
2021/03/27 00:32:41;;;;;;;23.42;8.75;;;6.80;90.00;;;;;;4985409;28;20952;-93
2021/03/27 00:35:36;;;;;;;19.90;8.48;;;7.00;88.40;;;;;;4984946;28;20420;-92
2021/03/27 00:38:18;;;;;;;17.77;8.48;;;7.10;88.60;;;;;;4982560;28;20492;-92
2021/03/27 00:41:08;;;;;;;19.85;8.63;;;7.10;86.40;;;;;;4984574;28;20424;-92
2021/03/27 00:44:20;;;;;;;19.60;8.60;;;7.20;87.90;;;;;;4986197;28;20467;-92
2021/03/27 00:47:05;;;;;;;22.80;8.95;;;7.00;87.70;;;;;;4983720;28;20428;-93
2021/03/27 00:50:00;;;;;;;17.83;9.05;;;6.60;90.10;;;;;;4979666;28;20434;-91
2021/03/27 00:52:46;;;;;;;19.85;9.23;;;6.40;89.00;;;;;;4982103;28;20444;-91
2021/03/27 00:56:09;;;;;;;20.67;9.23;;;6.40;90.00;;;;;;4983751;28;20487;-93
2021/03/27 00:59:56;;;;;;;22.77;10.15;;;6.50;90.10;;;;;;4960625;29;20417;-93
2021/03/27 01:03:51;;;;;;;20.03;9.97;;;6.60;90.70;;;;;;4910473;29;20414;-92
2021/03/27 01:07:17;;;;;;;22.35;9.05;;;6.50;91.10;;;;;;4905255;29;20435;-92
2021/03/27 01:11:12;;;;;;;20.27;9.40;;;6.50;90.50;;;;;;4895290;29;20434;-91
2021/03/27 01:14:05;;;;;;;22.77;9.60;;;6.60;90.70;;;;;;4871521;29;20434;-93
2021/03/27 01:17:44;;;;;;;20.52;9.45;;;6.60;90.90;;;;;;4870877;29;20884;-92
2021/03/27 01:20:44;;;;;;;21.42;9.75;;;6.70;90.00;;;;;;4867203;29;20441;-92
2021/03/27 01:23:58;;;;;;;21.52;9.82;;;6.90;90.40;;;;;;4868811;29;20461;-92
2021/03/27 01:27:01;;;;;;;22.13;9.52;;;6.90;90.20;;;;;;4870542;29;20972;-92
2021/03/27 01:30:53;;;;;;;20.75;9.70;;;6.70;89.30;;;;;;4866027;29;20434;-92
2021/03/27 01:34:21;;;;;;;24.53;9.47;;;6.70;90.30;;;;;;4918315;29;20425;-93
2021/03/27 01:43:59;;;;;;;20.08;9.75;;;6.80;88.40;;;;;;4952689;28;20420;-92
2021/03/27 01:47:51;;;;;;;23.47;9.53;;;7.00;88.60;;;;;;4995127;28;20423;-90
2021/03/27 01:50:56;;;;;;;20.92;9.77;;;7.00;88.80;;;;;;4886713;29;20517;-92
2021/03/27 01:54:22;;;;;;;23.55;9.15;;;7.20;86.70;;;;;;4863159;29;20761;-92
2021/03/27 01:57:25;;;;;;;19.90;8.88;;;7.60;84.20;;;;;;4875434;29;20939;-92
2021/03/27 02:00:35;;;;;;;21.38;8.77;;;7.80;85.20;;;;;;5180830;22;20427;-93
2021/03/27 02:03:52;;;;;;;19.60;9.10;;;7.90;83.50;;;;;;5026833;28;20542;-92
2021/03/27 02:07:00;;;;;;;23.63;8.63;;;8.00;82.60;;;;;;5014551;28;20442;-92
2021/03/27 02:11:02;;;;;;;24.95;9.20;;;8.10;81.90;;;;;;5020814;28;20443;-92
2021/03/27 02:14:54;;;;;;;19.83;9.00;;;8.40;79.80;;;;;;4980676;28;20441;-92
2021/03/27 02:18:13;;;;;;;19.73;9.43;;;8.40;78.50;;;;;;4975513;28;20504;-92
2021/03/27 02:21:42;;;;;;;19.15;9.30;;;8.60;77.70;;;;;;4977001;28;20509;-92
2021/03/27 02:25:24;;;;;;;21.10;9.38;;;8.70;77.30;;;;;;5006080;28;20438;-93
2021/03/27 02:28:59;;;;;;;21.52;9.25;;;8.80;77.40;;;;;;4949759;29;20447;-91
2021/03/27 02:32:35;;;;;;;19.75;9.00;;;8.60;78.20;;;;;;4962367;28;21022;-92
2021/03/27 02:36:37;;;;;;;21.63;9.48;;;8.70;80.80;;;;;;4966635;28;20425;-92
2021/03/27 02:39:31;;;;;;;20.15;8.77;;;8.60;81.00;;;;;;4817095;29;20437;-91
2021/03/27 02:43:00;;;;;;;21.73;9.30;;;8.70;77.50;;;;;;4819626;29;20438;-92
2021/03/27 02:46:20;;;;;;;20.23;8.80;;;8.70;76.10;;;;;;4797522;29;20798;-92
2021/03/27 02:49:30;;;;;;;17.30;7.67;;;8.80;75.90;;;;;;4835958;29;20445;-92
2021/03/27 02:52:51;;;;;;;18.33;7.97;;;8.70;75.20;;;;;;4836983;29;20503;-93
2021/03/27 02:56:19;;;;;;;19.20;7.97;;;8.60;77.30;;;;;;4835738;29;20967;-92
2021/03/27 03:00:30;;;;;;;17.38;7.85;;;8.60;77.40;;;;;;4835345;29;20480;-92
2021/03/27 03:03:43;;;;;;;17.77;7.47;;;8.40;78.90;;;;;;4798662;30;20464;-93
2021/03/27 03:07:02;;;;;;;16.13;7.55;;;8.20;79.40;;;;;;4784282;30;20474;-92
2021/03/27 03:10:03;;;;;;;13.50;7.45;;;7.90;81.70;;;;;;4818684;29;20441;-93
2021/03/27 03:13:46;;;;;;;17.67;7.68;;;7.60;83.00;;;;;;4899102;28;20427;-92
2021/03/27 03:17:51;;;;;;;19.05;8.10;;;7.20;84.30;;;;;;4911117;29;20458;-93
2021/03/27 03:21:06;;;;;;;18.70;8.60;;;7.00;87.00;;;;;;4874852;29;20830;-92
2021/03/27 03:24:17;;;;;;;18.30;8.52;;;6.80;87.80;;;;;;4870207;29;20426;-91
2021/03/27 03:27:42;;;;;;;19.05;8.00;;;6.80;88.50;;;;;;4869925;29;20446;-92
2021/03/27 03:31:03;;;;;;;18.97;8.23;;;7.00;85.90;;;;;;4857232;29;20434;-91
2021/03/27 03:34:49;;;;;;;17.35;7.93;;;7.10;85.00;;;;;;4873373;29;20428;-92
2021/03/27 03:38:16;;;;;;;14.95;7.57;;;7.30;85.00;;;;;;4886585;29;20442;-93
2021/03/27 03:45:08;;;;;;;15.10;8.05;;;7.20;84.70;;;;;;4890837;29;20502;-92
2021/03/27 03:48:19;;;;;;;18.15;8.18;;;7.20;86.50;;;;;;4875171;29;20456;-92
2021/03/27 03:51:54;;;;;;;17.60;8.13;;;6.80;87.20;;;;;;4888302;29;20442;-93
2021/03/27 03:55:01;;;;;;;19.38;8.38;;;6.50;88.40;;;;;;4871950;29;20431;-92
2021/03/27 03:58:39;;;;;;;17.98;8.10;;;6.30;89.70;;;;;;4906403;29;20417;-93
2021/03/27 04:09:37;;;;;;;16.53;7.60;;;6.20;89.30;;;;;;4888651;29;20489;-92
2021/03/27 04:12:50;;;;;;;16.40;6.82;;;6.40;88.50;;;;;;4927153;29;20417;-92
2021/03/27 04:16:20;;;;;;;14.55;7.07;;;6.40;90.00;;;;;;4927972;29;20440;-92
2021/03/27 04:19:53;;;;;;;19.45;7.78;;;6.10;89.20;;;;;;5007488;23;20946;-92
2021/03/27 04:23:51;;;;;;;20.73;7.13;;;5.90;89.00;;;;;;5023765;28;20564;-92
2021/03/27 04:27:30;;;;;;;19.65;8.10;;;5.90;89.10;;;;;;4928188;29;20425;-91
2021/03/27 04:30:58;;;;;;;17.88;8.13;;;6.30;88.10;;;;;;4871219;29;20426;-92
2021/03/27 04:38:50;;;;;;;19.27;8.00;;;6.10;88.90;;;;;;4970823;28;20433;-93
2021/03/27 04:43:00;;;;;;;20.58;9.10;;;6.00;89.70;;;;;;4929481;29;20468;-92
2021/03/27 04:47:10;;;;;;;17.83;8.68;;;6.00;90.10;;;;;;4874084;29;20449;-92
2021/03/27 04:50:34;;;;;;;18.50;9.00;;;6.10;90.10;;;;;;4796828;30;20460;-92
2021/03/27 04:53:46;;;;;;;15.73;8.27;;;6.00;89.70;;;;;;4766603;30;20435;-92
2021/03/27 04:57:17;;;;;;;19.00;8.57;;;5.80;90.70;;;;;;4781689;30;20540;-92
2021/03/27 05:00:25;;;;;;;17.50;9.00;;;5.60;91.30;;;;;;4752123;30;20803;-92
2021/03/27 05:03:56;;;;;;;25.70;8.65;;;5.30;92.00;;;;;;4764265;30;20430;-91
2021/03/27 05:07:20;;;;;;;17.48;8.75;;;5.00;92.80;;;;;;4765125;30;20415;-92
2021/03/27 05:10:20;;;;;;;17.80;8.73;;;4.80;93.80;;;;;;4780166;30;20448;-92
2021/03/27 05:13:34;;;;;;;19.33;8.10;;;4.70;94.10;;;;;;4762841;30;20439;-91
2021/03/27 05:16:42;;;;;;;18.47;8.40;;;4.70;94.60;;;;;;4763541;30;20447;-91
2021/03/27 05:19:57;;;;;;;14.45;7.20;;;4.60;95.00;;;;;;4739911;30;20535;-92
2021/03/27 05:23:42;;;;;;;15.27;6.72;;;4.60;94.90;;;;;;4755256;30;20450;-92
2021/03/27 05:26:46;;;;;;;15.70;6.57;;;4.70;94.80;;;;;;4717496;30;20442;-92
2021/03/27 05:30:05;;;;;;;12.30;5.90;;;4.80;94.60;;;;;;4739244;30;20446;-90
2021/03/27 05:33:18;;;;;;;12.40;5.70;;;4.90;94.40;;;;;;4778054;30;20431;-92
2021/03/27 05:37:05;;;;;;;13.18;5.57;;;5.20;94.70;;;;;;4806036;29;20484;-93
2021/03/27 06:07:33;;;;;;;17.87;7.20;;;6.80;90.10;;;;;;1758128;22;21991;31
2021/03/27 06:10:44;;;;;;;17.48;6.78;;;7.00;86.20;;;;;;4926363;29;20448;-91
2021/03/27 06:13:16;;;;;;;18.98;8.07;;;7.00;84.10;;;;;;4881777;29;20442;-90
2021/03/27 06:16:13;;;;;;;15.57;6.90;;;7.10;82.90;;;;;;4885197;29;20443;-91
2021/03/27 06:19:04;;;;;;;18.33;8.85;;;7.10;83.00;;;;;;4870061;29;20883;-94
2021/03/27 06:21:42;;;;;;;19.52;9.45;;;7.20;81.90;;;;;;4883434;29;20441;-93
2021/03/27 06:24:48;;;;;;;20.70;10.57;;;7.40;81.80;;;;;;4885178;29;20453;-93
2021/03/27 06:27:36;;;;;;;22.60;8.48;;;7.40;82.30;;;;;;4870981;29;20440;-95
2021/03/27 06:30:31;;;;;;;20.80;7.07;;;7.90;79.40;;;;;;4882437;29;20478;-95
2021/03/27 06:33:00;;;;;;;17.27;6.93;;;8.50;76.40;;;;;;4883455;29;21006;-91
2021/03/27 06:36:09;;;;;;;11.80;5.82;;;9.20;73.30;;;;;;4886532;29;20781;-92
2021/03/27 06:38:42;;;;;;;15.98;6.75;;;9.90;69.90;;;;;;4847880;29;20444;-93
2021/03/27 06:41:28;;;;;;;13.07;6.35;;;10.10;67.50;;;;;;4849807;29;20436;-94
2021/03/27 06:44:28;;;;;;;14.02;6.47;;;10.30;67.90;;;;;;4851434;29;20531;-91
2021/03/27 06:47:13;;;;;;;14.00;5.88;;;10.60;67.80;;;;;;4849623;29;20935;-93
2021/03/27 06:50:04;;;;;;;13.60;6.68;;;11.20;64.80;;;;;;4862375;29;20468;-92
2021/03/27 06:52:56;;;;;;;12.93;5.95;;;11.60;62.00;;;;;;4883627;29;20520;-91
2021/03/27 06:55:26;;;;;;;13.77;6.60;;;11.70;61.90;;;;;;4866434;29;20467;-89
2021/03/27 06:57:55;;;;;;;15.13;6.10;;;10.60;64.40;;;;;;4881497;29;20444;-87
2021/03/27 07:00:52;;;;;;;14.30;6.78;;;9.80;67.20;;;;;;4880584;29;20441;-88
2021/03/27 07:03:55;;;;;;;12.60;6.30;;;9.30;70.90;;;;;;4879945;29;20440;-88
2021/03/27 07:06:43;;;;;;;13.18;6.90;;;9.40;71.30;;;;;;4880416;29;20600;-89
2021/03/27 07:09:32;;;;;;;15.07;7.38;;;9.60;71.30;;;;;;4880676;29;20935;-88
2021/03/27 07:12:20;;;;;;;15.60;6.75;;;9.70;71.40;;;;;;4880762;29;20781;-89
2021/03/27 07:15:15;;;;;;;12.73;6.95;;;9.40;72.30;;;;;;4891185;29;20784;-88
2021/03/27 07:17:56;;;;;;;16.00;7.57;;;9.20;74.90;;;;;;4919526;29;20444;-90
2021/03/27 07:20:26;;;;;;;16.33;7.78;;;9.10;75.40;;;;;;4918900;29;20437;-88
2021/03/27 07:23:42;;;;;;;14.83;7.40;;;9.10;75.50;;;;;;4919830;29;20426;-90
2021/03/27 07:26:37;;;;;;;15.43;7.38;;;9.10;76.60;;;;;;4938687;29;20465;-95
2021/03/27 07:29:33;;;;;;;15.18;7.30;;;9.00;76.40;;;;;;5150726;23;20585;-95
2021/03/27 07:32:28;;;;;;;13.23;7.13;;;8.90;78.60;;;;;;5043784;28;20427;-91
2021/03/27 07:35:06;;;;;;;18.95;8.23;;;8.70;80.20;;;;;;5028059;28;20418;-90
2021/03/27 07:37:56;;;;;;;14.40;7.30;;;8.60;81.30;;;;;;5019311;28;20432;-90
2021/03/27 07:41:01;;;;;;;17.08;7.68;;;8.40;83.50;;;;;;5001594;28;20816;-90
2021/03/27 07:44:09;;;;;;;14.57;7.35;;;8.30;86.40;;;;;;5005428;28;20413;-93
2021/03/27 07:47:01;;;;;;;12.35;6.80;;;8.10;89.50;;;;;;5003552;28;20799;-95
2021/03/27 07:50:02;;;;;;;15.40;7.70;;;8.10;90.10;;;;;;5019170;28;20796;-95
2021/03/27 07:52:49;;;;;;;14.25;6.63;;;8.10;90.60;;;;;;5001811;28;20424;-91
2021/03/27 07:56:10;;;;;;;12.20;6.53;;;8.00;91.20;;;;;;5009240;28;20421;-94
2021/03/27 07:58:59;;;;;;;11.68;6.28;;;8.00;91.50;;;;;;4977074;28;20417;-93
2021/03/27 08:01:46;;;;;;;12.18;6.65;;;8.10;92.20;;;;;;5019922;28;20791;-94
2021/03/27 08:04:35;;;;;;;10.35;5.93;;;8.10;93.00;;;;;;5003629;28;20953;-90
2021/03/27 08:07:36;;;;;;;12.60;6.35;;;8.20;93.30;;;;;;4999717;28;20444;-93
2021/03/27 08:10:28;;;;;;;13.38;7.00;;;8.30;93.20;;;;;;5001836;28;20437;-90
2021/03/27 08:13:09;;;;;;;12.77;6.67;;;8.60;93.10;;;;;;5006828;28;20424;-90
2021/03/27 08:16:10;;;;;;;10.82;6.18;;;8.70;93.10;;;;;;5003905;28;20428;-90
2021/03/27 08:19:06;;;;;;;11.95;5.78;;;8.80;92.50;;;;;;5016699;28;20555;-91
2021/03/27 08:22:20;;;;;;;10.63;6.55;;;8.80;93.20;;;;;;5000755;28;20507;-94
2021/03/27 08:25:10;;;;;;;9.57;6.25;;;8.70;93.80;;;;;;5001945;28;20425;-91
2021/03/27 08:27:40;;;;;;;10.88;6.38;;;8.60;94.90;;;;;;5002109;28;20432;-92
2021/03/27 08:30:35;;;;;;;8.60;5.90;;;8.50;95.60;;;;;;4995941;28;20446;-93
2021/03/27 08:33:19;;;;;;;10.80;6.60;;;8.50;96.40;;;;;;4996157;28;20457;-90
2021/03/27 08:36:06;;;;;;;9.98;6.85;;;8.50;97.20;;;;;;4996313;28;20434;-89
2021/03/27 08:38:46;;;;;;;12.48;7.25;;;8.40;97.90;;;;;;4998471;28;20506;-91
2021/03/27 08:41:27;;;;;;;10.15;6.30;;;8.60;98.10;;;;;;4995535;28;20756;-90
2021/03/27 08:44:03;;;;;;;8.77;5.83;;;8.50;98.40;;;;;;4996117;28;20419;-88
2021/03/27 08:46:36;;;;;;;10.18;6.43;;;8.40;98.90;;;;;;4995447;28;20426;-90
2021/03/27 08:49:40;;;;;;;9.60;5.60;;;8.10;99.90;;;;;;5001282;28;20505;-94
2021/03/27 08:52:20;;;;;;;8.93;5.68;;;8.10;99.90;;;;;;4999769;28;20427;-95
2021/03/27 08:55:11;;;;;;;10.87;6.53;;;8.20;99.90;;;;;;5005477;28;20909;-94
2021/03/27 08:58:13;;;;;;;11.23;7.57;;;8.10;99.90;;;;;;5085547;23;20408;-95
2021/03/27 09:01:36;;;;;;;9.50;5.78;;;8.10;99.90;;;;;;5028309;28;20417;-95
2021/03/27 09:04:23;;;;;;;9.02;4.95;;;8.20;99.90;;;;;;4944141;29;20511;-92
2021/03/27 09:07:11;;;;;;;11.13;6.85;;;8.10;99.90;;;;;;4926976;29;20443;-91
2021/03/27 09:09:48;;;;;;;7.97;5.68;;;8.00;99.90;;;;;;4926810;29;21054;-94
2021/03/27 09:13:12;;;;;;;9.77;5.55;;;7.80;99.90;;;;;;4929803;29;20910;-93
2021/03/27 09:15:58;;;;;;;9.45;6.78;;;7.70;99.90;;;;;;4937717;29;20556;-91
2021/03/27 09:19:04;;;;;;;8.43;4.70;;;7.60;99.90;;;;;;4925742;29;20463;-95
2021/03/27 09:21:52;;;;;;;10.27;6.78;;;7.60;99.90;;;;;;4920692;29;20454;-92
2021/03/27 09:24:37;;;;;;;12.45;7.57;;;7.50;99.90;;;;;;4934374;29;20427;-91
2021/03/27 09:27:15;;;;;;;11.68;6.15;;;7.50;99.90;;;;;;4916557;29;20825;-92
2021/03/27 09:30:10;;;;;;;8.50;6.25;;;7.50;99.90;;;;;;4917794;29;20428;-91
2021/03/27 09:32:46;;;;;;;9.07;6.23;;;7.40;99.90;;;;;;4911792;29;20951;-90
2021/03/27 09:35:18;;;;;;;9.05;5.65;;;7.40;99.90;;;;;;4930158;29;20429;-93
2021/03/27 09:38:15;;;;;;;10.43;6.00;;;7.40;99.90;;;;;;4929355;29;20433;-92
2021/03/27 09:41:18;;;;;;;8.93;6.10;;;7.40;99.90;;;;;;5009490;28;20422;-93
2021/03/27 09:44:10;;;;;;;11.27;6.57;;;7.30;99.90;;;;;;4930500;29;20505;-95
2021/03/27 09:46:57;;;;;;;10.85;7.80;;;7.20;99.90;;;;;;4909886;29;20917;-90
2021/03/27 09:49:56;;;;;;;13.60;7.38;;;7.20;99.90;;;;;;4914369;29;20439;-91
2021/03/27 09:53:12;;;;;;;11.65;7.70;;;7.20;99.90;;;;;;4910739;29;20431;-93
2021/03/27 09:56:11;;;;;;;9.98;6.57;;;7.20;99.90;;;;;;4856200;29;20447;-94
2021/03/27 09:59:16;;;;;;;5.18;1.40;;;7.00;99.90;;;;;;4852635;29;20444;-91
2021/03/27 10:01:51;;;;;;;3.00;1.80;;;6.30;99.90;;;;;;4856846;29;20439;-95
2021/03/27 10:05:03;;;;;;;3.20;1.58;;;6.00;99.90;;;;;;4856486;29;20428;-90
2021/03/27 10:07:57;;;;;;;3.17;1.58;;;5.70;99.90;;;;;;4854877;29;20531;-91
2021/03/27 10:11:05;;;;;;;4.60;1.83;;;5.40;99.90;;;;;;4855804;29;20428;-92
2021/03/27 10:13:52;;;;;;;3.50;2.28;;;5.20;99.90;;;;;;4855795;29;20436;-91
2021/03/27 10:16:51;;;;;;;2.75;1.85;;;5.10;99.90;;;;;;4853811;29;20444;-95
2021/03/27 10:20:06;;;;;;;3.40;1.80;;;5.00;99.90;;;;;;4866108;29;20453;-95
2021/03/27 10:23:00;;;;;;;2.95;1.70;;;4.90;99.90;;;;;;4910657;29;20959;-94
2021/03/27 10:26:03;;;;;;;2.93;1.90;;;4.90;99.90;;;;;;4912062;29;20523;-93
2021/03/27 10:32:29;;;;;;;3.70;2.20;;;4.80;99.90;;;;;;4961741;28;20449;-93
2021/03/27 10:35:42;;;;;;;2.25;1.48;;;4.90;99.90;;;;;;4993388;28;20417;-92
2021/03/27 10:39:07;;;;;;;2.17;1.60;;;4.90;99.90;;;;;;4981089;28;20419;-93
2021/03/27 10:42:20;;;;;;;4.57;1.50;;;5.00;99.90;;;;;;4989335;28;20442;-92
2021/03/27 10:45:09;;;;;;;2.30;1.73;;;5.00;99.90;;;;;;4986712;28;20471;-95
2021/03/27 10:48:03;;;;;;;3.17;1.40;;;5.10;99.90;;;;;;4985255;28;20520;-94
2021/03/27 10:50:53;;;;;;;3.90;1.83;;;5.10;99.90;;;;;;4970783;28;20491;-95
2021/03/27 10:54:00;;;;;;;3.28;1.48;;;5.10;99.90;;;;;;4986806;28;20435;-95
2021/03/27 10:56:59;;;;;;;2.22;1.35;;;5.20;99.90;;;;;;4970451;28;20432;-91
2021/03/27 10:59:41;;;;;;;1.95;1.23;;;5.20;99.90;;;;;;4984910;28;20475;-93
2021/03/27 11:02:30;;;;;;;2.42;1.38;;;5.10;99.90;;;;;;4986582;28;20470;-92
2021/03/27 11:05:25;;;;;;;2.05;1.30;;;5.20;99.90;;;;;;4985452;28;20471;-94
2021/03/27 11:08:16;;;;;;;2.30;1.40;;;5.10;99.90;;;;;;4950266;29;20454;-91
2021/03/27 11:10:56;;;;;;;3.40;1.52;;;5.20;99.90;;;;;;4944658;29;20947;-95
2021/03/27 11:13:49;;;;;;;4.22;1.55;;;5.20;99.90;;;;;;4949849;29;20434;-92
2021/03/27 11:16:45;;;;;;;3.83;1.75;;;5.20;99.90;;;;;;4968614;28;20421;-92
2021/03/27 11:19:54;;;;;;;3.22;1.60;;;5.30;99.90;;;;;;4950395;29;20476;-93
2021/03/27 11:22:35;;;;;;;2.72;1.50;;;5.30;99.90;;;;;;5001446;28;20553;-95
2021/03/27 11:25:28;;;;;;;2.10;1.58;;;5.40;99.90;;;;;;5001608;28;20437;-89
2021/03/27 11:28:25;;;;;;;3.05;1.48;;;5.50;99.90;;;;;;4998786;28;20450;-90
2021/03/27 11:31:23;;;;;;;2.00;1.10;;;5.60;99.70;;;;;;4998568;28;20531;-90
2021/03/27 11:34:25;;;;;;;1.55;0.90;;;5.50;98.50;;;;;;4998491;28;20442;-91
2021/03/27 11:37:29;;;;;;;1.95;1.23;;;5.50;97.50;;;;;;4998080;28;20778;-90
2021/03/27 11:40:29;;;;;;;2.47;1.00;;;5.60;98.00;;;;;;4997695;28;20428;-89
2021/03/27 11:43:16;;;;;;;2.35;0.82;;;5.60;98.90;;;;;;5000291;28;20489;-92
2021/03/27 11:45:51;;;;;;;1.70;1.25;;;5.60;98.90;;;;;;5000500;28;20422;-88
2021/03/27 11:48:55;;;;;;;5.80;1.00;;;5.60;99.20;;;;;;4998215;28;20435;-91
2021/03/27 11:52:13;;;;;;;2.08;1.40;;;5.70;99.20;;;;;;4983234;28;20480;-93
2021/03/27 11:55:17;;;;;;;1.80;1.40;;;5.70;99.20;;;;;;4919892;29;20813;-91
2021/03/27 11:58:02;;;;;;;1.42;1.30;;;5.60;99.80;;;;;;4979142;28;20441;-90
2021/03/27 12:01:07;;;;;;;2.85;1.83;;;5.60;99.90;;;;;;4999039;28;20918;-90
2021/03/27 12:04:15;;;;;;;2.20;1.13;;;5.50;99.90;;;;;;4997933;28;21025;-89
2021/03/27 12:07:19;;;;;;;4.07;1.60;;;5.50;99.90;;;;;;5000813;28;20501;-89
2021/03/27 12:10:21;;;;;;;5.15;1.60;;;5.50;99.90;;;;;;5003038;28;20901;-92
2021/03/27 12:13:11;;;;;;;2.10;1.37;;;5.60;99.90;;;;;;5005710;28;20414;-96
2021/03/27 12:16:33;;;;;;;2.15;1.40;;;5.70;99.80;;;;;;5004044;28;20427;-91
2021/03/27 12:19:23;;;;;;;2.90;1.40;;;6.00;99.90;;;;;;4985030;28;20456;-91
2021/03/27 12:21:55;;;;;;;4.68;1.77;;;6.00;99.80;;;;;;4984950;28;20449;-93
2021/03/27 12:24:43;;;;;;;3.22;1.70;;;6.10;99.70;;;;;;5000734;28;20503;-90
2021/03/27 12:27:48;;;;;;;2.70;1.50;;;6.00;99.90;;;;;;5000976;28;20431;-90
2021/03/27 12:30:46;;;;;;;1.52;1.05;;;6.00;99.30;;;;;;4995089;28;20429;-90
2021/03/27 12:33:31;;;;;;;1.73;1.23;;;6.00;99.50;;;;;;5000761;28;20524;-91
2021/03/27 12:36:10;;;;;;;2.17;1.38;;;5.90;99.90;;;;;;4986060;28;20441;-90
2021/03/27 12:39:06;;;;;;;3.25;1.40;;;6.00;99.90;;;;;;5000714;28;20949;-95
2021/03/27 12:42:11;;;;;;;2.33;1.30;;;6.10;99.70;;;;;;5001972;28;20944;-95
2021/03/27 12:44:51;;;;;;;4.30;1.55;;;6.10;99.90;;;;;;4997793;28;20423;-94
2021/03/27 12:47:36;;;;;;;3.80;1.80;;;5.90;99.90;;;;;;4984106;28;20509;-91
2021/03/27 12:50:21;;;;;;;2.35;1.70;;;5.80;99.90;;;;;;5001514;28;20441;-91
2021/03/27 12:53:26;;;;;;;1.90;1.30;;;5.70;99.90;;;;;;5000661;28;20422;-96
2021/03/27 12:56:31;;;;;;;3.25;1.48;;;5.70;99.90;;;;;;5001326;28;20465;-90
2021/03/27 12:59:51;;;;;;;3.42;1.80;;;5.70;99.90;;;;;;5002224;28;20445;-90
2021/03/27 13:02:20;;;;;;;3.80;1.65;;;5.70;99.90;;;;;;4947056;28;20786;-89
2021/03/27 13:05:17;;;;;;;3.67;1.65;;;5.80;99.90;;;;;;4998319;28;20492;-89
2021/03/27 13:07:49;;;;;;;2.00;1.80;;;5.80;99.90;;;;;;4981663;28;20454;-88
2021/03/27 13:10:48;;;;;;;2.95;1.95;;;5.90;99.90;;;;;;4997694;28;20422;-88
2021/03/27 13:13:54;;;;;;;2.28;1.75;;;6.00;99.90;;;;;;4997796;28;20414;-89
2021/03/27 13:16:43;;;;;;;3.27;1.80;;;6.10;99.90;;;;;;4919614;29;20433;-89
2021/03/27 13:19:48;;;;;;;3.33;2.00;;;6.00;99.90;;;;;;4979559;28;20438;-89
2021/03/27 13:22:36;;;;;;;3.78;2.00;;;6.00;99.90;;;;;;4985552;28;20500;-89
2021/03/27 13:25:08;;;;;;;3.60;2.03;;;6.00;99.90;;;;;;4998437;28;20426;-88
2021/03/27 13:27:46;;;;;;;2.92;1.75;;;5.90;99.90;;;;;;4998232;28;20430;-89
2021/03/27 13:30:20;;;;;;;3.60;1.77;;;5.80;99.90;;;;;;4997613;28;20431;-89
2021/03/27 13:33:03;;;;;;;4.35;2.10;;;5.70;99.90;;;;;;4999309;28;20422;-90
2021/03/27 13:38:44;;;;;;;3.75;2.20;;;5.60;99.90;;;;;;4963144;29;20465;-89
2021/03/27 13:41:34;;;;;;;5.03;2.80;;;5.50;99.90;;;;;;4963737;29;20502;-90
2021/03/27 13:44:46;;;;;;;4.28;2.55;;;5.40;99.90;;;;;;4944828;29;20433;-89
2021/03/27 13:48:15;;;;;;;3.85;2.60;;;5.30;99.90;;;;;;4889634;29;20463;-89
2021/03/27 13:51:15;;;;;;;6.53;2.70;;;5.30;99.90;;;;;;4877020;29;20524;-90
2021/03/27 13:54:22;;;;;;;6.70;2.88;;;5.20;99.90;;;;;;4964275;22;20434;-90
2021/03/27 13:57:36;;;;;;;4.93;2.90;;;5.20;99.90;;;;;;5168899;23;20391;-89
2021/03/27 14:00:54;;;;;;;5.50;2.95;;;5.20;99.90;;;;;;5010312;28;20411;-95
2021/03/27 14:03:44;;;;;;;4.35;2.30;;;5.20;99.90;;;;;;5025692;28;20443;-96
2021/03/27 14:06:28;;;;;;;4.25;2.20;;;5.30;99.90;;;;;;5024648;28;20467;-95
2021/03/27 14:09:23;;;;;;;3.33;1.98;;;5.40;99.90;;;;;;5095466;23;20807;-95
2021/03/27 14:11:57;;;;;;;2.80;1.93;;;5.50;99.90;;;;;;5006355;28;20488;-95
2021/03/27 14:15:14;;;;;;;2.40;1.47;;;5.60;99.90;;;;;;5005683;28;20928;-93
2021/03/27 14:18:14;;;;;;;3.10;1.75;;;5.60;99.90;;;;;;5009811;28;20518;-96
2021/03/27 14:20:56;;;;;;;3.05;2.15;;;5.70;99.90;;;;;;5009971;28;20428;-95
2021/03/27 14:24:13;;;;;;;3.20;1.50;;;5.70;99.90;;;;;;5012827;28;20432;-91
2021/03/27 14:27:00;;;;;;;3.33;1.70;;;5.70;99.20;;;;;;5001452;28;20982;-93
2021/03/27 14:29:46;;;;;;;2.38;1.45;;;5.90;99.50;;;;;;4999490;28;20453;-87
2021/03/27 14:32:34;;;;;;;3.03;1.75;;;6.20;98.00;;;;;;5016555;28;20433;-93
2021/03/27 14:35:04;;;;;;;2.90;1.60;;;6.30;97.70;;;;;;4999806;28;20427;-89
2021/03/27 14:37:40;;;;;;;3.35;1.52;;;6.40;96.90;;;;;;4998922;28;20483;-92
2021/03/27 14:40:32;;;;;;;3.80;1.70;;;6.40;96.90;;;;;;4999429;28;20798;-90
2021/03/27 14:43:18;;;;;;;3.73;1.70;;;6.60;97.30;;;;;;5001864;28;20427;-91
2021/03/27 14:46:18;;;;;;;4.50;1.60;;;6.70;96.00;;;;;;5002530;28;20429;-91
2021/03/27 14:48:55;;;;;;;1.95;1.10;;;6.60;94.00;;;;;;5005883;28;20440;-93
2021/03/27 14:51:32;;;;;;;1.75;1.30;;;6.60;94.10;;;;;;5000858;28;20432;-88
2021/03/27 14:54:19;;;;;;;2.20;1.00;;;6.60;93.50;;;;;;5001738;28;20524;-91
2021/03/27 14:56:54;;;;;;;2.83;1.47;;;6.50;91.90;;;;;;4961058;28;20425;-87
2021/03/27 14:59:33;;;;;;;2.17;1.23;;;6.40;92.50;;;;;;5000513;28;20409;-88
2021/03/27 15:02:30;;;;;;;2.60;1.30;;;6.30;92.20;;;;;;5000948;28;20812;-88
2021/03/27 15:05:13;;;;;;;3.58;1.50;;;6.20;92.40;;;;;;5002181;28;20758;-96
2021/03/27 15:07:59;;;;;;;1.98;1.17;;;6.20;92.10;;;;;;5001548;28;20908;-89
2021/03/27 15:11:03;;;;;;;1.90;1.40;;;6.20;91.40;;;;;;5000740;28;20432;-88
2021/03/27 15:13:44;;;;;;;3.97;1.30;;;6.10;92.50;;;;;;5000588;28;20433;-88
2021/03/27 15:16:27;;;;;;;3.57;1.40;;;6.10;92.20;;;;;;4999544;28;20452;-87
2021/03/27 15:19:28;;;;;;;2.30;1.38;;;6.10;92.70;;;;;;5000566;28;20424;-88
2021/03/27 15:22:18;;;;;;;3.30;1.35;;;6.00;92.30;;;;;;5000131;28;20425;-88
2021/03/27 15:27:46;;;;;;;7.63;1.90;;;5.90;91.70;;;;;;5015903;28;20425;-87
2021/03/27 15:30:24;;;;;;;3.65;1.77;;;5.80;92.60;;;;;;5000218;28;20408;-88
2021/03/27 15:33:13;;;;;;;2.92;1.58;;;5.80;92.50;;;;;;5000428;28;20412;-89
2021/03/27 15:35:53;;;;;;;2.35;1.30;;;5.80;93.00;;;;;;4998823;28;20428;-88
2021/03/27 15:38:30;;;;;;;4.15;1.85;;;5.80;93.40;;;;;;4999254;28;20429;-88
2021/03/27 15:41:16;;;;;;;10.88;4.45;;;5.80;93.90;;;;;;4999253;28;20544;-89
2021/03/27 15:44:05;;;;;;;6.53;2.27;;;5.70;93.60;;;;;;4999890;28;20459;-89
2021/03/27 15:46:35;;;;;;;6.47;1.70;;;5.70;92.80;;;;;;4983539;28;20484;-88
2021/03/27 15:49:39;;;;;;;8.25;2.45;;;5.60;93.00;;;;;;4999845;28;20436;-93
2021/03/27 15:52:46;;;;;;;4.05;1.65;;;5.60;93.60;;;;;;4999378;28;20429;-88
2021/03/27 15:55:30;;;;;;;5.18;2.28;;;5.60;94.30;;;;;;5016286;28;20979;-94
2021/03/27 15:58:02;;;;;;;2.28;1.50;;;5.50;94.20;;;;;;4994853;28;20440;-88
2021/03/27 16:00:53;;;;;;;3.37;1.77;;;5.50;94.40;;;;;;4999572;28;20409;-88
2021/03/27 16:03:57;;;;;;;5.22;1.70;;;5.60;94.90;;;;;;4983188;28;20496;-87
2021/03/27 16:07:02;;;;;;;3.45;1.75;;;5.60;94.20;;;;;;4999123;28;20412;-92
2021/03/27 16:09:33;;;;;;;3.27;1.60;;;5.60;94.80;;;;;;4998411;28;20448;-90
2021/03/27 16:12:03;;;;;;;3.20;1.60;;;5.50;94.90;;;;;;4999582;28;20516;-88
2021/03/27 16:14:51;;;;;;;2.72;1.60;;;5.60;94.90;;;;;;4999981;28;20417;-88
2021/03/27 16:17:43;;;;;;;2.92;2.00;;;5.60;94.80;;;;;;4999220;28;20424;-88
2021/03/27 16:20:35;;;;;;;3.97;1.95;;;5.50;95.30;;;;;;5016168;28;20428;-88
2021/03/27 16:23:40;;;;;;;5.22;1.58;;;5.50;96.10;;;;;;4998591;28;20815;-91
2021/03/27 16:26:35;;;;;;;4.10;2.05;;;5.50;95.70;;;;;;4920500;29;20438;-88
2021/03/27 16:29:35;;;;;;;3.85;2.03;;;5.50;96.10;;;;;;4920736;29;20482;-89
2021/03/27 16:32:36;;;;;;;4.35;2.50;;;5.50;95.80;;;;;;4921865;29;20440;-90
2021/03/27 16:35:31;;;;;;;5.80;1.80;;;5.60;95.30;;;;;;4921111;29;20543;-90
2021/03/27 16:38:23;;;;;;;3.47;2.00;;;5.60;95.10;;;;;;4920540;29;20465;-94
2021/03/27 16:41:00;;;;;;;2.13;1.50;;;5.80;94.60;;;;;;4919515;29;20495;-88
2021/03/27 16:43:53;;;;;;;4.43;1.50;;;6.10;93.90;;;;;;4919069;29;20438;-89
2021/03/27 16:46:25;;;;;;;5.68;1.90;;;6.50;93.20;;;;;;4918976;29;20466;-88